createdAt,value
2023-04-06T00:01:56.600Z,54.79
2023-04-06T00:04:27.686Z,54.65
2023-04-06T00:06:57.500Z,54.95
2023-04-06T00:09:26.782Z,55.64
2023-04-06T00:11:56.448Z,55.38
2023-04-06T00:14:25.897Z,55.33
2023-04-06T00:16:55.336Z,54.78
2023-04-06T00:19:26.279Z,54.72
2023-04-06T00:21:56.207Z,54.74
2023-04-06T00:24:26.556Z,55.32
2023-04-06T00:26:56.484Z,54.60
2023-04-06T00:29:26.050Z,54.95
2023-04-06T00:31:55.443Z,54.82
2023-04-06T00:34:26.375Z,54.42
2023-04-06T00:36:55.946Z,54.31
2023-04-06T00:39:25.604Z,57.02
2023-04-06T00:41:56.152Z,55.57
2023-04-06T00:44:26.456Z,54.84
2023-04-06T00:46:56.356Z,54.32
2023-04-06T00:49:27.568Z,54.20
2023-04-06T00:51:59.978Z,54.59
2023-04-06T00:54:30.707Z,54.31
2023-04-06T00:57:01.558Z,54.74
2023-04-06T00:59:33.609Z,54.14
2023-04-06T01:02:04.988Z,54.19
2023-04-06T01:04:42.747Z,54.24
2023-04-06T01:07:18.771Z,54.53
2023-04-06T01:10:03.928Z,54.14
2023-04-06T01:12:35.312Z,55.82
2023-04-06T01:15:12.134Z,54.84
2023-04-06T01:17:45.929Z,54.94
2023-04-06T01:20:19.946Z,54.10
2023-04-06T01:22:50.940Z,53.96
2023-04-06T01:25:21.814Z,54.13
2023-04-06T01:28:04.858Z,53.90
2023-04-06T01:30:52.041Z,53.81
2023-04-06T01:33:40.419Z,53.79
2023-04-06T01:36:15.022Z,53.64
2023-04-06T01:38:47.281Z,53.54
2023-04-06T01:41:19.527Z,53.64
2023-04-06T01:43:55.680Z,53.64
2023-04-06T01:46:29.109Z,53.84
2023-04-06T01:48:58.714Z,53.75
2023-04-06T01:51:37.710Z,53.46
2023-04-06T01:54:11.403Z,53.46
2023-04-06T01:57:07.211Z,53.38
2023-04-06T01:59:43.669Z,53.56
2023-04-06T02:02:21.756Z,53.49
2023-04-06T02:05:01.383Z,53.33
2023-04-06T02:07:31.561Z,53.37
2023-04-06T02:10:02.203Z,53.35
2023-04-06T02:12:39.011Z,53.63
2023-04-06T02:15:14.349Z,53.97
2023-04-06T02:17:44.351Z,53.73
2023-04-06T02:20:14.334Z,53.51
2023-04-06T02:22:43.822Z,53.29
2023-04-06T02:25:14.664Z,54.09
2023-04-06T02:27:44.191Z,55.08
2023-04-06T03:05:08.070Z,54.00
2023-04-06T03:07:42.033Z,55.46
2023-04-06T03:10:17.208Z,54.34
2023-04-06T03:12:48.404Z,54.99
2023-04-06T03:15:17.701Z,54.08
2023-04-06T03:17:52.757Z,53.85
2023-04-06T03:20:36.789Z,53.89
2023-04-06T03:23:07.035Z,53.68
2023-04-06T03:25:41.398Z,55.95
2023-04-06T03:28:13.538Z,55.18
2023-04-06T03:30:52.350Z,54.81
2023-04-06T03:33:32.094Z,55.02
2023-04-06T03:36:02.882Z,55.74
2023-04-06T03:38:34.454Z,57.41
2023-04-06T03:41:06.760Z,55.94
2023-04-06T03:43:36.491Z,56.64
2023-04-06T03:46:05.880Z,55.24
2023-04-06T03:48:35.969Z,55.23
2023-04-06T03:51:09.210Z,55.70
2023-04-06T03:53:39.116Z,55.42
2023-04-06T03:56:08.954Z,54.99
2023-04-06T03:58:38.272Z,54.74
2023-04-06T04:01:07.518Z,55.79
2023-04-06T04:03:38.640Z,55.22
2023-04-06T04:06:10.127Z,54.85
2023-04-06T04:08:40.244Z,54.61
2023-04-06T04:11:11.537Z,55.01
2023-04-06T04:13:41.283Z,55.82
2023-04-06T04:16:12.067Z,54.71
2023-04-06T04:18:41.689Z,55.52
2023-04-06T04:21:12.430Z,55.30
2023-04-06T04:23:42.073Z,58.16
2023-04-06T04:26:11.373Z,57.53
2023-04-06T04:28:41.202Z,55.30
2023-04-06T04:31:11.312Z,55.16
2023-04-06T04:33:42.541Z,55.15
2023-04-06T04:36:18.831Z,55.52
2023-04-06T04:38:50.378Z,55.11
2023-04-06T04:41:20.019Z,56.10
2023-04-06T04:43:51.321Z,55.58
2023-04-06T04:46:24.978Z,56.53
2023-04-06T04:48:55.947Z,56.62
2023-04-06T04:51:27.154Z,56.66
2023-04-06T04:54:07.913Z,55.69
2023-04-06T04:56:37.259Z,57.10
2023-04-06T04:59:20.406Z,58.15
2023-04-06T05:01:57.304Z,57.95
2023-04-06T05:04:35.458Z,58.76
2023-04-06T05:07:10.128Z,58.08
2023-04-06T05:09:42.541Z,59.10
2023-04-06T05:12:12.741Z,59.63
2023-04-06T05:14:53.104Z,59.43
2023-04-06T05:17:24.688Z,60.12
2023-04-06T05:19:54.566Z,59.28
2023-04-06T05:22:28.607Z,59.63
2023-04-06T05:25:05.909Z,60.43
2023-04-06T05:27:36.664Z,59.65
2023-04-06T05:30:11.697Z,60.68
2023-04-06T05:32:47.507Z,61.66
2023-04-06T05:35:18.247Z,61.03
2023-04-06T05:37:52.280Z,61.02
2023-04-06T05:40:26.162Z,61.27
2023-04-06T05:42:56.380Z,61.96
2023-04-06T05:45:26.267Z,61.79
2023-04-06T05:47:58.735Z,62.43
2023-04-06T05:50:31.875Z,61.22
2023-04-06T05:53:02.769Z,61.27
2023-04-06T05:55:39.350Z,61.77
2023-04-06T05:58:19.506Z,61.80
2023-04-06T06:00:50.790Z,63.77
2023-04-06T06:03:23.850Z,62.10
2023-04-06T06:06:01.617Z,62.71
2023-04-06T06:08:38.756Z,62.88
2023-04-06T06:11:15.000Z,62.48
2023-04-06T06:13:44.525Z,63.19
2023-04-06T06:16:14.190Z,63.88
2023-04-06T06:18:47.946Z,63.89
2023-04-06T06:21:18.280Z,63.95
2023-04-06T06:23:51.225Z,62.66
2023-04-06T06:26:23.733Z,61.79
2023-04-06T06:28:53.534Z,62.31
2023-04-06T06:31:23.973Z,61.45
2023-04-06T06:33:53.429Z,61.52
2023-04-06T06:36:24.101Z,60.60
2023-04-06T06:38:55.967Z,61.23
2023-04-06T06:41:25.990Z,60.19
2023-04-06T06:43:56.018Z,60.48
2023-04-06T06:46:25.791Z,60.66
2023-04-06T06:48:55.018Z,59.81
2023-04-06T06:51:24.688Z,59.63
2023-04-06T06:53:56.716Z,59.32
2023-04-06T06:56:27.777Z,59.33
2023-04-06T06:58:58.003Z,59.98
2023-04-06T07:01:27.718Z,59.21
2023-04-06T07:03:58.353Z,59.24
2023-04-06T07:06:28.071Z,59.39
2023-04-06T07:08:58.937Z,59.61
2023-04-06T07:11:28.693Z,59.32
2023-04-06T07:13:58.138Z,59.31
2023-04-06T07:16:27.847Z,60.21
2023-04-06T07:18:57.823Z,61.14
2023-04-06T07:21:28.308Z,59.79
2023-04-06T07:24:00.082Z,60.07
2023-04-06T07:26:29.864Z,59.59
2023-04-06T07:28:59.947Z,59.82
2023-04-06T07:31:29.554Z,59.51
2023-04-06T07:33:58.899Z,59.75
2023-04-06T07:36:31.668Z,60.13
2023-04-06T07:39:03.142Z,59.21
2023-04-06T07:41:33.669Z,59.96
2023-04-06T07:44:04.043Z,59.72
2023-04-06T07:46:34.294Z,59.77
2023-04-06T07:49:04.425Z,60.12
2023-04-06T07:51:38.908Z,59.57
2023-04-06T07:54:09.916Z,59.34
2023-04-06T07:56:39.745Z,59.10
2023-04-06T07:59:09.041Z,59.33
2023-04-06T08:01:38.725Z,59.06
2023-04-06T08:04:08.334Z,58.40
2023-04-06T08:06:38.391Z,58.76
2023-04-06T08:09:09.210Z,58.66
2023-04-06T08:11:39.031Z,58.47
2023-04-06T08:14:08.927Z,58.62
2023-04-06T08:16:38.820Z,58.66
2023-04-06T08:19:10.211Z,58.64
2023-04-06T08:21:43.651Z,58.73
2023-04-06T08:24:15.791Z,58.68
2023-04-06T08:26:45.653Z,58.71
2023-04-06T08:29:15.006Z,58.68
2023-04-06T08:31:44.567Z,58.33
2023-04-06T08:34:15.463Z,58.51
2023-04-06T08:36:46.588Z,58.07
2023-04-06T08:39:17.299Z,58.11
2023-04-06T08:41:47.169Z,57.68
2023-04-06T08:44:16.811Z,56.89
2023-04-06T08:46:46.569Z,56.92
2023-04-06T08:49:18.371Z,56.76
2023-04-06T08:51:48.525Z,57.05
2023-04-06T08:54:19.401Z,56.40
2023-04-06T08:56:49.850Z,56.53
2023-04-06T08:59:19.618Z,55.87
2023-04-06T09:01:49.819Z,56.51
2023-04-06T09:04:20.075Z,56.40
2023-04-06T09:06:50.986Z,56.41
2023-04-06T09:09:24.701Z,55.55
2023-04-06T09:11:55.080Z,55.76
2023-04-06T09:14:35.804Z,55.89
2023-04-06T09:17:05.902Z,56.07
2023-04-06T09:19:34.988Z,56.46
2023-04-06T09:22:06.069Z,55.34
2023-04-06T09:24:48.029Z,54.93
2023-04-06T09:27:18.563Z,55.66
2023-04-06T09:29:47.931Z,55.93
2023-04-06T09:32:18.223Z,56.16
2023-04-06T09:34:50.790Z,55.23
2023-04-06T09:37:21.614Z,55.56
2023-04-06T09:39:56.265Z,54.35
2023-04-06T09:42:28.866Z,54.19
2023-04-06T09:44:58.216Z,54.71
2023-04-06T09:47:29.689Z,54.47
2023-04-06T09:50:01.129Z,54.19
2023-04-06T09:52:35.649Z,53.52
2023-04-06T09:55:09.160Z,53.12
2023-04-06T09:57:47.792Z,53.67
2023-04-06T10:00:22.850Z,52.62
2023-04-06T10:02:58.998Z,53.01
2023-04-06T10:05:36.182Z,53.48
2023-04-06T10:08:11.713Z,53.89
2023-04-06T10:10:42.610Z,54.04
2023-04-06T10:13:13.826Z,53.54
2023-04-06T10:15:44.336Z,52.72
2023-04-06T10:18:14.403Z,53.86
2023-04-06T10:20:50.653Z,53.42
2023-04-06T10:23:26.386Z,52.63
2023-04-06T10:25:58.620Z,52.59
2023-04-06T10:28:32.848Z,52.97
2023-04-06T10:31:03.512Z,53.02
2023-04-06T10:33:33.230Z,53.11
2023-04-06T10:36:13.320Z,52.18
2023-04-06T10:38:43.972Z,53.54
2023-04-06T10:41:15.210Z,53.43
2023-04-06T10:43:46.406Z,53.33
2023-04-06T10:46:28.264Z,52.88
2023-04-06T10:48:57.923Z,53.22
2023-04-06T10:51:32.093Z,52.59
2023-04-06T10:54:03.789Z,53.24
2023-04-06T10:56:39.963Z,52.92
2023-04-06T10:59:09.983Z,52.87
2023-04-06T11:01:39.096Z,52.45
2023-04-06T11:04:10.881Z,52.66
2023-04-06T11:06:41.604Z,52.30
2023-04-06T11:09:11.582Z,52.53
2023-04-06T11:11:42.434Z,52.02
2023-04-06T11:14:13.156Z,52.21
2023-04-06T11:16:42.686Z,52.51
2023-04-06T11:19:13.570Z,52.74
2023-04-06T11:21:47.747Z,51.97
2023-04-06T11:24:18.929Z,52.20
2023-04-06T11:26:52.889Z,51.84
2023-04-06T11:29:24.362Z,52.07
2023-04-06T11:31:55.505Z,52.11
2023-04-06T11:34:26.450Z,51.60
2023-04-06T11:36:59.261Z,51.38
2023-04-06T11:39:30.742Z,51.70
2023-04-06T11:42:05.542Z,51.82
2023-04-06T11:44:37.554Z,51.60
2023-04-06T11:47:08.075Z,52.04
2023-04-06T11:49:46.726Z,51.02
2023-04-06T11:52:20.913Z,51.92
2023-04-06T11:54:53.403Z,52.20
2023-04-06T11:57:26.357Z,52.83
2023-04-06T11:59:57.458Z,51.90
2023-04-06T12:02:27.205Z,51.93
2023-04-06T12:04:56.851Z,50.96
2023-04-06T12:07:26.206Z,51.08
2023-04-06T12:09:55.798Z,51.65
2023-04-06T12:12:26.600Z,52.02
2023-04-06T12:14:56.404Z,51.35
2023-04-06T12:17:25.793Z,51.07
2023-04-06T12:19:57.168Z,51.31
2023-04-06T12:22:32.181Z,51.96
2023-04-06T12:25:01.826Z,51.99
2023-04-06T12:27:36.083Z,51.20
2023-04-06T12:30:06.451Z,51.31
2023-04-06T12:32:38.116Z,50.33
2023-04-06T12:35:09.925Z,50.65
2023-04-06T12:37:41.327Z,50.00
2023-04-06T12:40:12.922Z,50.96
2023-04-06T12:42:46.875Z,49.65
2023-04-06T12:45:17.262Z,50.12
2023-04-06T12:47:47.933Z,50.49
2023-04-06T12:50:17.150Z,50.68
2023-04-06T12:52:46.685Z,51.00
2023-04-06T12:55:16.320Z,51.04
2023-04-06T12:57:48.075Z,49.83
2023-04-06T13:00:19.983Z,48.97
2023-04-06T13:02:49.355Z,49.61
2023-04-06T13:05:19.960Z,50.74
2023-04-06T13:07:49.527Z,50.66
2023-04-06T13:10:19.134Z,50.47
2023-04-06T13:12:49.952Z,49.80
2023-04-06T13:15:19.889Z,49.88
2023-04-06T13:17:49.171Z,50.41
2023-04-06T13:20:18.657Z,49.38
2023-04-06T13:22:49.857Z,49.60
2023-04-06T13:25:20.525Z,50.20
2023-04-06T13:27:51.809Z,50.49
2023-04-06T13:30:21.654Z,50.27
2023-04-06T13:32:51.017Z,50.45
2023-04-06T13:35:22.186Z,50.07
2023-04-06T13:37:53.204Z,50.86
2023-04-06T13:40:22.909Z,50.30
2023-04-06T13:42:53.649Z,49.90
2023-04-06T13:45:23.228Z,50.03
2023-04-06T13:47:53.190Z,49.53
2023-04-06T13:50:22.709Z,50.27
2023-04-06T13:52:52.073Z,49.76
2023-04-06T13:55:21.634Z,49.63
2023-04-06T13:57:52.122Z,50.29
2023-04-06T14:00:23.285Z,50.43
2023-04-06T14:02:52.544Z,50.07
2023-04-06T14:05:22.024Z,49.80
2023-04-06T14:07:51.224Z,50.31
2023-04-06T14:10:22.269Z,50.42
2023-04-06T14:12:53.670Z,50.17
2023-04-06T14:15:24.901Z,50.90
2023-04-06T14:17:54.529Z,50.71
2023-04-06T14:20:23.933Z,51.04
2023-04-06T14:22:53.762Z,51.59
2023-04-06T14:25:24.884Z,51.70
2023-04-06T14:27:55.467Z,51.04
2023-04-06T14:30:24.955Z,51.27
2023-04-06T14:32:54.139Z,51.50
2023-04-06T14:35:23.372Z,50.85
2023-04-06T14:37:52.546Z,51.50
2023-04-06T14:40:22.001Z,50.78
2023-04-06T14:42:53.731Z,50.38
2023-04-06T14:45:25.024Z,50.97
2023-04-06T14:47:55.703Z,51.44
2023-04-06T14:50:25.261Z,51.40
2023-04-06T14:52:54.513Z,51.30
2023-04-06T14:55:23.872Z,51.33
2023-04-06T14:57:54.245Z,51.30
2023-04-06T15:00:25.556Z,51.37
2023-04-06T15:02:54.787Z,51.39
2023-04-06T15:05:24.122Z,51.37
2023-04-06T15:07:53.420Z,51.66
2023-04-06T15:10:22.781Z,51.85
2023-04-06T15:12:52.090Z,51.67
2023-04-06T15:15:21.933Z,51.68
2023-04-06T15:17:54.304Z,51.99
2023-04-06T15:20:23.857Z,52.10
2023-04-06T15:22:53.006Z,51.99
2023-04-06T15:25:23.304Z,52.36
2023-04-06T15:27:52.581Z,52.48
2023-04-06T15:30:21.986Z,52.27
2023-04-06T15:32:58.049Z,52.33
2023-04-06T15:35:28.608Z,52.53
2023-04-06T15:37:58.197Z,52.67
2023-04-06T15:40:29.054Z,52.82
2023-04-06T15:42:58.404Z,52.85
2023-04-06T15:45:27.985Z,53.25
2023-04-06T15:47:58.666Z,53.70
2023-04-06T15:50:29.477Z,53.33
2023-04-06T15:52:58.831Z,53.50
2023-04-06T15:55:28.228Z,53.66
2023-04-06T15:57:57.399Z,53.34
2023-04-06T16:00:28.667Z,53.55
2023-04-06T16:02:59.379Z,53.97
2023-04-06T16:05:34.610Z,53.57
2023-04-06T16:08:04.230Z,53.77
2023-04-06T16:10:33.753Z,53.84
2023-04-06T16:13:03.022Z,54.19
2023-04-06T16:15:32.564Z,54.22
2023-04-06T16:18:04.247Z,54.03
2023-04-06T16:20:33.741Z,54.44
2023-04-06T16:23:04.310Z,54.80
2023-04-06T16:25:33.703Z,54.74
2023-04-06T16:28:03.225Z,54.51
2023-04-06T16:30:32.823Z,54.71
2023-04-06T16:33:03.309Z,54.83
2023-04-06T16:35:33.500Z,54.62
2023-04-06T16:38:02.595Z,54.50
2023-04-06T16:40:31.944Z,54.86
2023-04-06T16:43:01.755Z,55.66
2023-04-06T16:45:31.276Z,55.56
2023-04-06T16:48:00.666Z,55.94
2023-04-06T16:50:31.773Z,54.64
2023-04-06T16:53:02.301Z,54.46
2023-04-06T16:55:34.386Z,54.70
2023-04-06T16:58:03.744Z,56.03
2023-04-06T17:00:33.202Z,55.12
2023-04-06T17:03:02.786Z,54.64
2023-04-06T17:05:34.840Z,55.51
2023-04-06T17:08:04.354Z,55.65
2023-04-06T17:10:37.288Z,56.20
2023-04-06T17:13:11.143Z,56.08
2023-04-06T17:15:40.931Z,56.05
2023-04-06T17:18:11.771Z,55.36
2023-04-06T17:20:43.308Z,55.90
2023-04-06T17:23:12.999Z,56.17
2023-04-06T17:25:42.473Z,55.82
2023-04-06T17:28:11.977Z,55.93
2023-04-06T17:30:42.768Z,56.19
2023-04-06T17:33:12.602Z,57.01
2023-04-06T17:35:43.514Z,55.91
2023-04-06T17:38:12.706Z,56.82
2023-04-06T17:40:42.042Z,57.26
2023-04-06T17:43:12.272Z,57.29
2023-04-06T17:45:41.255Z,57.96
2023-04-06T17:48:12.050Z,56.80
2023-04-06T17:50:42.942Z,56.26
2023-04-06T17:53:13.395Z,56.41
2023-04-06T17:55:44.859Z,56.27
2023-04-06T17:58:16.381Z,57.25
2023-04-06T18:00:46.058Z,56.48
2023-04-06T18:03:16.307Z,57.77
2023-04-06T18:05:47.523Z,57.98
2023-04-06T18:08:17.911Z,58.47
2023-04-06T18:10:48.774Z,57.36
2023-04-06T18:13:20.128Z,56.92
2023-04-06T18:15:49.873Z,57.43
2023-04-06T18:18:20.213Z,57.87
2023-04-06T18:20:52.537Z,57.67
2023-04-06T18:23:23.857Z,57.66
2023-04-06T18:26:08.295Z,57.75
2023-04-06T18:28:37.888Z,58.38
2023-04-06T18:31:07.391Z,57.31
2023-04-06T18:33:37.065Z,57.62
2023-04-06T18:36:10.048Z,57.45
2023-04-06T18:38:44.037Z,57.67
2023-04-06T18:41:13.845Z,57.30
2023-04-06T18:43:43.533Z,57.38
2023-04-06T18:46:14.751Z,57.00
2023-04-06T18:48:45.001Z,57.28
2023-04-06T18:51:15.781Z,56.80
2023-04-06T18:53:45.320Z,57.66
2023-04-06T18:56:19.570Z,58.29
2023-04-06T18:58:51.558Z,57.26
2023-04-06T19:01:26.618Z,58.63
2023-04-06T19:03:58.422Z,58.67
2023-04-06T19:06:30.252Z,57.62
2023-04-06T19:09:01.929Z,58.19
2023-04-06T19:11:34.120Z,57.45
2023-04-06T19:14:07.895Z,58.26
2023-04-06T19:16:42.244Z,56.98
2023-04-06T19:19:14.988Z,58.01
2023-04-06T19:21:51.589Z,57.29
2023-04-06T19:24:22.118Z,57.64
2023-04-06T19:26:52.553Z,57.19
2023-04-06T19:29:23.664Z,57.36
2023-04-06T19:31:53.115Z,57.73
2023-04-06T19:34:24.526Z,57.91
2023-04-06T19:36:57.063Z,58.07
2023-04-06T19:39:28.539Z,58.31
2023-04-06T19:41:58.538Z,58.25
2023-04-06T19:44:28.202Z,57.57
2023-04-06T19:46:58.013Z,59.00
2023-04-06T19:49:29.668Z,58.45
2023-04-06T19:52:00.287Z,58.29
2023-04-06T19:54:33.900Z,58.70
2023-04-06T19:57:03.419Z,59.22
2023-04-06T19:59:35.664Z,59.50
2023-04-06T20:02:08.004Z,59.08
2023-04-06T20:04:42.955Z,58.76
2023-04-06T20:07:13.987Z,58.96
2023-04-06T20:09:44.718Z,58.44
2023-04-06T20:12:16.118Z,58.95
2023-04-06T20:14:50.586Z,60.05
2023-04-06T20:17:20.486Z,59.74
2023-04-06T20:19:52.083Z,59.78
2023-04-06T20:22:25.206Z,59.57
2023-04-06T20:24:55.232Z,60.78
2023-04-06T20:27:25.386Z,61.32
2023-04-06T20:29:57.108Z,59.69
2023-04-06T20:32:26.901Z,60.80
2023-04-06T20:34:57.166Z,60.07
2023-04-06T20:37:27.986Z,60.13
2023-04-06T20:40:01.287Z,60.48
2023-04-06T20:42:33.061Z,61.07
2023-04-06T20:45:06.738Z,61.09
2023-04-06T20:47:37.479Z,59.84
2023-04-06T20:50:09.328Z,60.48
2023-04-06T20:52:40.746Z,60.12
2023-04-06T20:55:14.661Z,60.64
2023-04-06T20:57:45.697Z,61.54
2023-04-06T21:00:17.294Z,61.62
2023-04-06T21:02:47.434Z,60.13
2023-04-06T21:05:17.053Z,61.46
2023-04-06T21:07:47.703Z,60.63
2023-04-06T21:10:18.594Z,60.17
2023-04-06T21:12:47.768Z,61.28
2023-04-06T21:15:21.605Z,62.90
2023-04-06T21:17:50.897Z,62.32
2023-04-06T21:20:20.428Z,62.52
2023-04-06T21:22:50.978Z,63.51
2023-04-06T21:25:20.568Z,63.82
2023-04-06T21:27:49.620Z,62.21
2023-04-06T21:30:20.792Z,64.07
2023-04-06T21:32:50.192Z,62.45
2023-04-06T21:35:19.638Z,61.19
2023-04-06T21:37:50.458Z,62.91
2023-04-06T21:40:20.949Z,61.90
2023-04-06T21:42:50.689Z,62.54
2023-04-06T21:45:19.859Z,61.56
2023-04-06T21:47:49.400Z,63.48
2023-04-06T21:50:19.413Z,63.30
2023-04-06T21:52:49.769Z,63.13
2023-04-06T21:55:19.312Z,65.13
2023-04-06T21:57:48.440Z,65.53
2023-04-06T22:00:19.996Z,64.88
2023-04-06T22:02:49.544Z,62.70
2023-04-06T22:05:19.437Z,65.06
2023-04-06T22:07:50.125Z,64.50
2023-04-06T22:10:20.041Z,63.49
2023-04-06T22:12:51.506Z,62.36
2023-04-06T22:15:21.099Z,63.35
2023-04-06T22:17:50.607Z,61.99
2023-04-06T22:20:19.956Z,62.39
2023-04-06T22:22:51.195Z,63.60
2023-04-06T22:25:20.896Z,64.09
2023-04-06T22:27:50.159Z,63.71
2023-04-06T22:30:19.773Z,64.02
2023-04-06T22:32:48.908Z,63.29
2023-04-06T22:35:18.488Z,62.37
2023-04-06T22:37:48.975Z,62.06
2023-04-06T22:40:18.329Z,62.95
2023-04-06T22:42:47.610Z,64.16
2023-04-06T22:45:16.963Z,63.80
2023-04-06T22:47:46.191Z,63.48
2023-04-06T22:50:16.115Z,65.00
2023-04-06T22:52:45.564Z,63.48
2023-04-06T22:55:16.489Z,65.07
2023-04-06T22:57:45.649Z,63.14
2023-04-06T23:00:15.813Z,64.16
2023-04-06T23:02:45.110Z,62.39
2023-04-06T23:05:14.649Z,63.41
2023-04-06T23:07:43.806Z,62.76
2023-04-06T23:10:13.363Z,63.26
2023-04-06T23:12:44.643Z,65.30
2023-04-06T23:15:14.531Z,64.68
2023-04-06T23:17:43.998Z,64.47
2023-04-06T23:20:13.804Z,63.00
2023-04-06T23:22:43.332Z,63.10
2023-04-06T23:25:13.454Z,62.74
2023-04-06T23:27:44.012Z,63.70
2023-04-06T23:30:13.895Z,65.08
2023-04-06T23:32:43.666Z,63.25
2023-04-06T23:35:13.458Z,63.38
2023-04-06T23:37:42.713Z,62.67
2023-04-06T23:40:12.689Z,62.35
2023-04-06T23:42:43.031Z,63.67
2023-04-06T23:45:12.801Z,65.17
2023-04-06T23:47:42.061Z,63.38
2023-04-06T23:50:12.043Z,63.71
2023-04-06T23:52:41.465Z,66.99
2023-04-06T23:55:11.869Z,63.60
2023-04-06T23:57:41.039Z,64.65
